La rose des vents
Donnes mto: Semaine 02/10/23 - 08/10/23 (S 40)
Date Horaire Temp. E. Hum. E. P.atmo. Pluie Vent 1mn Direction Ensoleilleme Ev.Tr. Solaire P. de rose Temp au vent Rafales
02/10/2023 00:00 20,3 C 71 % 1023,3 hPa 0,0 mm 0,0 km/h (0 Bft) N 0,00 h 0,025 mm 0 W/m 14,9 C 20,3 C 0,0 km/h (0 Bft)
02/10/2023 01:00 20,0 C 72 % 1023,3 hPa 0,0 mm 0,0 km/h (0 Bft) N 0,00 h 0,025 mm 0 W/m 14,8 C 20,0 C 0,0 km/h (0 Bft)
02/10/2023 02:00 19,9 C 71 % 1023,2 hPa 0,0 mm 0,0 km/h (0 Bft) N 0,00 h 0,025 mm 0 W/m 14,5 C 19,9 C 0,0 km/h (0 Bft)
02/10/2023 03:00 19,8 C 71 % 1023,1 hPa 0,0 mm 0,0 km/h (0 Bft) N 0,00 h 0,025 mm 0 W/m 14,4 C 19,8 C 0,0 km/h (0 Bft)
02/10/2023 04:00 19,8 C 70 % 1023,0 hPa 0,0 mm 0,0 km/h (0 Bft) N 0,00 h 0,025 mm 0 W/m 14,2 C 19,8 C 0,0 km/h (0 Bft)
02/10/2023 05:00 19,6 C 70 % 1023,0 hPa 0,0 mm 0,0 km/h (0 Bft) N 0,00 h 0,025 mm 0 W/m 14,0 C 19,6 C 0,0 km/h (0 Bft)
02/10/2023 06:00 19,5 C 71 % 1023,1 hPa 0,0 mm 0,0 km/h (0 Bft) N 0,00 h 0,025 mm 0 W/m 14,1 C 19,5 C 0,0 km/h (0 Bft)
02/10/2023 07:00 19,3 C 72 % 1023,5 hPa 0,0 mm 0,0 km/h (0 Bft) N 0,03 h 0,025 mm 14 W/m 14,1 C 19,3 C 0,0 km/h (0 Bft)
02/10/2023 08:00 19,9 C 71 % 1024,1 hPa 0,0 mm 0,0 km/h (0 Bft) N 0,45 h 0,000 mm 96 W/m 14,5 C 19,9 C 0,2 km/h (0 Bft)
02/10/2023 09:00 22,9 C 65 % 1024,3 hPa 0,0 mm 0,0 km/h (0 Bft) N 1,00 h 0,051 mm 305 W/m 16,0 C 22,9 C 0,0 km/h (0 Bft)
02/10/2023 10:00 26,6 C 54 % 1024,5 hPa 0,0 mm 0,1 km/h (0 Bft) S 1,00 h 0,203 mm 452 W/m 16,6 C 26,6 C 0,7 km/h (0 Bft)
02/10/2023 11:00 28,4 C 46 % 1024,4 hPa 0,0 mm 0,3 km/h (0 Bft) S-SE 1,00 h 0,305 mm 599 W/m 15,6 C 28,4 C 1,8 km/h (1 Bft)
02/10/2023 12:00 28,9 C 45 % 1024,2 hPa 0,0 mm 2,3 km/h (1 Bft) SE 1,00 h 0,406 mm 681 W/m 15,9 C 28,9 C 6,3 km/h (2 Bft)
02/10/2023 13:00 29,0 C 44 % 1024,0 hPa 0,0 mm 2,6 km/h (1 Bft) E-SE 1,00 h 0,483 mm 706 W/m 15,4 C 29,0 C 7,0 km/h (2 Bft)
02/10/2023 14:00 28,8 C 45 % 1023,4 hPa 0,0 mm 2,3 km/h (1 Bft) E 1,00 h 0,483 mm 670 W/m 15,7 C 28,8 C 6,4 km/h (2 Bft)
02/10/2023 15:00 27,9 C 46 % 1023,0 hPa 0,0 mm 2,9 km/h (1 Bft) E 1,00 h 0,457 mm 577 W/m 15,2 C 27,9 C 6,9 km/h (2 Bft)
02/10/2023 16:00 27,2 C 47 % 1022,9 hPa 0,0 mm 0,7 km/h (0 Bft) E 1,00 h 0,406 mm 429 W/m 14,9 C 27,2 C 2,6 km/h (1 Bft)
02/10/2023 17:00 27,0 C 55 % 1022,6 hPa 0,0 mm 0,1 km/h (0 Bft) E 1,00 h 0,279 mm 253 W/m 17,1 C 27,0 C 0,8 km/h (0 Bft)
02/10/2023 18:00 24,9 C 65 % 1022,6 hPa 0,0 mm 0,0 km/h (0 Bft) N 0,68 h 0,178 mm 75 W/m 17,9 C 24,9 C 0,0 km/h (0 Bft)
02/10/2023 19:00 22,4 C 76 % 1023,1 hPa 0,0 mm 0,0 km/h (0 Bft) N 0,02 h 0,051 mm 7 W/m 18,0 C 22,4 C 0,0 km/h (0 Bft)
02/10/2023 20:00 20,6 C 82 % 1023,2 hPa 0,0 mm 0,0 km/h (0 Bft) N 0,00 h 0,000 mm 0 W/m 17,3 C 20,6 C 0,0 km/h (0 Bft)
02/10/2023 21:00 19,5 C 85 % 1023,2 hPa 0,0 mm 0,0 km/h (0 Bft) N 0,00 h 0,025 mm 0 W/m 16,8 C 19,5 C 0,0 km/h (0 Bft)
02/10/2023 22:00 18,7 C 83 % 1023,2 hPa 0,0 mm 0,0 km/h (0 Bft) N 0,00 h 0,025 mm 0 W/m 15,8 C 18,7 C 0,0 km/h (0 Bft)
02/10/2023 23:00 18,5 C 80 % 1023,1 hPa 0,0 mm 0,0 km/h (0 Bft) N 0,00 h 0,025 mm 0 W/m 15,0 C 18,5 C 0,0 km/h (0 Bft)
03/10/2023 00:00 19,0 C 75 % 1023,0 hPa 0,0 mm 0,0 km/h (0 Bft) N 0,00 h 0,025 mm 0 W/m 14,4 C 19,0 C 0,0 km/h (0 Bft)
03/10/2023 01:00 18,9 C 72 % 1022,9 hPa 0,0 mm 0,0 km/h (0 Bft) N 0,00 h 0,025 mm 0 W/m 13,6 C 18,9 C 0,0 km/h (0 Bft)
03/10/2023 02:00 18,4 C 71 % 1022,9 hPa 0,0 mm 0,0 km/h (0 Bft) N 0,00 h 0,025 mm 0 W/m 13,0 C 18,4 C 0,0 km/h (0 Bft)
03/10/2023 03:00 18,3 C 70 % 1022,5 hPa 0,0 mm 0,0 km/h (0 Bft) N 0,00 h 0,025 mm 0 W/m 12,6 C 18,3 C 0,0 km/h (0 Bft)
03/10/2023 04:00 18,2 C 70 % 1022,2 hPa 0,0 mm 0,0 km/h (0 Bft) N 0,00 h 0,025 mm 0 W/m 12,7 C 18,2 C 0,0 km/h (0 Bft)
03/10/2023 05:00 18,1 C 68 % 1022,0 hPa 0,0 mm 0,0 km/h (0 Bft) N 0,00 h 0,025 mm 0 W/m 12,0 C 18,1 C 0,0 km/h (0 Bft)
03/10/2023 06:00 18,0 C 67 % 1021,7 hPa 0,0 mm 0,0 km/h (0 Bft) N 0,00 h 0,025 mm 0 W/m 11,7 C 18,0 C 0,0 km/h (0 Bft)
03/10/2023 07:00 17,8 C 66 % 1021,7 hPa 0,0 mm 0,0 km/h (0 Bft) N 0,02 h 0,025 mm 12 W/m 11,4 C 17,8 C 0,0 km/h (0 Bft)
03/10/2023 08:00 18,4 C 68 % 1021,9 hPa 0,0 mm 0,0 km/h (0 Bft) N 0,38 h 0,000 mm 89 W/m 12,4 C 18,4 C 0,0 km/h (0 Bft)
03/10/2023 09:00 21,4 C 72 % 1022,2 hPa 0,0 mm 0,4 km/h (0 Bft) E-SE 1,00 h 0,051 mm 300 W/m 16,1 C 21,4 C 1,5 km/h (1 Bft)
03/10/2023 10:00 23,7 C 65 % 1022,5 hPa 0,0 mm 0,4 km/h (0 Bft) E-SE 1,00 h 0,178 mm 453 W/m 16,8 C 23,7 C 2,3 km/h (1 Bft)
03/10/2023 11:00 25,3 C 58 % 1022,5 hPa 0,0 mm 0,7 km/h (0 Bft) E-SE 1,00 h 0,279 mm 592 W/m 16,6 C 25,3 C 2,6 km/h (1 Bft)
03/10/2023 12:00 26,2 C 56 % 1022,0 hPa 0,0 mm 1,8 km/h (1 Bft) E-SE 1,00 h 0,381 mm 658 W/m 16,6 C 26,2 C 5,0 km/h (1 Bft)
03/10/2023 13:00 26,3 C 57 % 1021,6 hPa 0,0 mm 1,7 km/h (1 Bft) E-SE 1,00 h 0,432 mm 703 W/m 17,1 C 26,3 C 5,0 km/h (1 Bft)
03/10/2023 14:00 26,8 C 58 % 1021,0 hPa 0,0 mm 1,1 km/h (1 Bft) E-SE 1,00 h 0,457 mm 620 W/m 17,8 C 26,8 C 4,2 km/h (1 Bft)
03/10/2023 15:00 26,0 C 63 % 1020,5 hPa 0,0 mm 0,9 km/h (0 Bft) E-SE 1,00 h 0,406 mm 534 W/m 18,4 C 26,0 C 3,4 km/h (1 Bft)
03/10/2023 16:00 25,9 C 68 % 1020,0 hPa 0,0 mm 0,6 km/h (0 Bft) E 1,00 h 0,356 mm 391 W/m 19,5 C 25,9 C 2,5 km/h (1 Bft)
03/10/2023 17:00 24,8 C 73 % 1019,8 hPa 0,0 mm 0,2 km/h (0 Bft) E 1,00 h 0,254 mm 214 W/m 19,6 C 24,8 C 0,9 km/h (0 Bft)
03/10/2023 18:00 23,7 C 77 % 1019,7 hPa 0,0 mm 0,0 km/h (0 Bft) E 0,68 h 0,127 mm 75 W/m 19,4 C 23,7 C 0,2 km/h (0 Bft)
03/10/2023 19:00 21,7 C 83 % 1019,8 hPa 0,0 mm 0,0 km/h (0 Bft) N 0,02 h 0,051 mm 7 W/m 18,7 C 21,7 C 0,0 km/h (0 Bft)
03/10/2023 20:00 20,4 C 88 % 1019,9 hPa 0,0 mm 0,0 km/h (0 Bft) N 0,00 h 0,000 mm 0 W/m 18,3 C 20,4 C 0,0 km/h (0 Bft)
03/10/2023 21:00 19,8 C 91 % 1020,2 hPa 0,0 mm 0,0 km/h (0 Bft) N 0,00 h 0,000 mm 0 W/m 18,2 C 19,8 C 0,0 km/h (0 Bft)
03/10/2023 22:00 19,4 C 92 % 1020,5 hPa 0,0 mm 0,0 km/h (0 Bft) N 0,00 h 0,000 mm 0 W/m 18,1 C 19,4 C 0,0 km/h (0 Bft)
03/10/2023 23:00 19,0 C 94 % 1020,7 hPa 0,0 mm 0,0 km/h (0 Bft) N 0,00 h 0,000 mm 0 W/m 18,0 C 19,0 C 0,0 km/h (0 Bft)
04/10/2023 00:00 18,8 C 95 % 1020,7 hPa 0,0 mm 0,0 km/h (0 Bft) N 0,00 h 0,000 mm 0 W/m 18,0 C 18,8 C 0,0 km/h (0 Bft)
04/10/2023 01:00 18,5 C 95 % 1020,4 hPa 0,0 mm 0,0 km/h (0 Bft) N 0,00 h 0,000 mm 0 W/m 17,6 C 18,5 C 0,1 km/h (0 Bft)
04/10/2023 02:00 18,2 C 94 % 1020,4 hPa 0,0 mm 0,0 km/h (0 Bft) N 0,00 h 0,000 mm 0 W/m 17,3 C 18,2 C 0,0 km/h (0 Bft)
04/10/2023 03:00 18,0 C 93 % 1020,1 hPa 0,0 mm 0,0 km/h (0 Bft) N 0,00 h 0,000 mm 0 W/m 16,8 C 18,0 C 0,1 km/h (0 Bft)
04/10/2023 04:00 17,9 C 91 % 1019,8 hPa 0,0 mm 0,0 km/h (0 Bft) N 0,00 h 0,000 mm 0 W/m 16,4 C 17,9 C 0,0 km/h (0 Bft)
04/10/2023 05:00 17,8 C 91 % 1019,6 hPa 0,0 mm 0,0 km/h (0 Bft) N 0,00 h 0,000 mm 0 W/m 16,3 C 17,8 C 0,0 km/h (0 Bft)
04/10/2023 06:00 17,9 C 91 % 1019,8 hPa 0,0 mm 0,0 km/h (0 Bft) N 0,00 h 0,000 mm 0 W/m 16,4 C 17,9 C 0,0 km/h (0 Bft)
04/10/2023 07:00 18,3 C 90 % 1020,0 hPa 0,0 mm 0,0 km/h (0 Bft) N 0,00 h 0,000 mm 15 W/m 16,6 C 18,3 C 0,0 km/h (0 Bft)
04/10/2023 08:00 19,3 C 89 % 1020,4 hPa 0,0 mm 0,0 km/h (0 Bft) N 0,57 h 0,000 mm 93 W/m 17,4 C 19,3 C 0,0 km/h (0 Bft)
04/10/2023 09:00 22,2 C 82 % 1020,9 hPa 0,0 mm 0,0 km/h (0 Bft) N 1,00 h 0,051 mm 296 W/m 18,9 C 22,2 C 0,0 km/h (0 Bft)
04/10/2023 10:00 25,1 C 70 % 1021,3 hPa 0,0 mm 0,2 km/h (0 Bft) E 1,00 h 0,178 mm 448 W/m 19,1 C 25,1 C 0,9 km/h (0 Bft)
04/10/2023 11:00 26,4 C 64 % 1021,6 hPa 0,0 mm 1,2 km/h (1 Bft) NE 1,00 h 0,279 mm 599 W/m 19,0 C 26,4 C 3,9 km/h (1 Bft)
04/10/2023 12:00 27,4 C 64 % 1021,8 hPa 0,0 mm 1,6 km/h (1 Bft) E-SE 0,97 h 0,381 mm 630 W/m 19,9 C 27,4 C 5,5 km/h (1 Bft)
04/10/2023 13:00 26,4 C 71 % 1021,7 hPa 0,0 mm 1,3 km/h (1 Bft) E-SE 0,57 h 0,432 mm 377 W/m 20,6 C 26,4 C 5,6 km/h (1 Bft)
04/10/2023 14:00 25,8 C 73 % 1021,4 hPa 0,0 mm 1,7 km/h (1 Bft) E 0,45 h 0,279 mm 380 W/m 20,6 C 25,8 C 6,7 km/h (2 Bft)
04/10/2023 15:00 24,8 C 78 % 1021,3 hPa 0,0 mm 0,6 km/h (0 Bft) E 0,05 h 0,279 mm 208 W/m 20,6 C 24,8 C 3,6 km/h (1 Bft)
04/10/2023 16:00 24,5 C 80 % 1021,3 hPa 0,0 mm 1,4 km/h (1 Bft) E-SE 0,37 h 0,127 mm 245 W/m 20,8 C 24,5 C 5,7 km/h (1 Bft)
04/10/2023 17:00 24,4 C 81 % 1021,5 hPa 0,0 mm 0,4 km/h (0 Bft) E 0,88 h 0,152 mm 207 W/m 20,9 C 24,4 C 2,9 km/h (1 Bft)
04/10/2023 18:00 23,4 C 82 % 1021,5 hPa 0,0 mm 0,0 km/h (0 Bft) N 0,37 h 0,127 mm 58 W/m 20,2 C 23,4 C 0,4 km/h (0 Bft)
04/10/2023 19:00 21,8 C 88 % 1021,9 hPa 0,0 mm 0,0 km/h (0 Bft) N 0,00 h 0,051 mm 5 W/m 19,7 C 21,8 C 0,0 km/h (0 Bft)
04/10/2023 20:00 21,0 C 91 % 1022,1 hPa 0,0 mm 0,0 km/h (0 Bft) N 0,00 h 0,000 mm 0 W/m 19,5 C 21,0 C 0,0 km/h (0 Bft)
04/10/2023 21:00 20,5 C 92 % 1022,4 hPa 0,0 mm 0,0 km/h (0 Bft) N 0,00 h 0,000 mm 0 W/m 19,3 C 20,5 C 0,0 km/h (0 Bft)
04/10/2023 22:00 20,6 C 94 % 1022,5 hPa 0,0 mm 0,0 km/h (0 Bft) N 0,00 h 0,000 mm 0 W/m 19,6 C 20,6 C 0,0 km/h (0 Bft)
04/10/2023 23:00 20,8 C 95 % 1022,4 hPa 0,0 mm 0,0 km/h (0 Bft) N 0,00 h 0,000 mm 0 W/m 19,9 C 20,8 C 0,0 km/h (0 Bft)
05/10/2023 00:00 20,8 C 95 % 1022,4 hPa 0,0 mm 0,0 km/h (0 Bft) N 0,00 h 0,000 mm 0 W/m 20,0 C 20,8 C 0,0 km/h (0 Bft)
05/10/2023 01:00 20,8 C 95 % 1022,1 hPa 0,0 mm 0,0 km/h (0 Bft) N 0,00 h 0,000 mm 0 W/m 20,0 C 20,8 C 0,0 km/h (0 Bft)
05/10/2023 02:00 20,6 C 95 % 1022,1 hPa 0,0 mm 0,0 km/h (0 Bft) N 0,00 h 0,000 mm 0 W/m 19,7 C 20,6 C 0,0 km/h (0 Bft)
05/10/2023 03:00 20,1 C 94 % 1022,1 hPa 0,0 mm 0,0 km/h (0 Bft) N 0,00 h 0,000 mm 0 W/m 19,1 C 20,1 C 0,0 km/h (0 Bft)
05/10/2023 04:00 19,5 C 94 % 1022,0 hPa 0,0 mm 0,0 km/h (0 Bft) N 0,00 h 0,000 mm 0 W/m 18,5 C 19,5 C 0,0 km/h (0 Bft)
05/10/2023 05:00 18,7 C 92 % 1022,0 hPa 0,0 mm 0,0 km/h (0 Bft) N 0,00 h 0,000 mm 0 W/m 17,3 C 18,7 C 0,0 km/h (0 Bft)
05/10/2023 06:00 18,6 C 88 % 1022,1 hPa 0,0 mm 0,0 km/h (0 Bft) N 0,00 h 0,000 mm 0 W/m 16,6 C 18,6 C 0,0 km/h (0 Bft)
05/10/2023 07:00 18,5 C 86 % 1022,2 hPa 0,0 mm 0,0 km/h (0 Bft) N 0,03 h 0,000 mm 13 W/m 16,2 C 18,5 C 0,0 km/h (0 Bft)
05/10/2023 08:00 18,9 C 86 % 1022,8 hPa 0,0 mm 0,0 km/h (0 Bft) N 0,45 h 0,000 mm 89 W/m 16,5 C 18,9 C 0,0 km/h (0 Bft)
05/10/2023 09:00 21,9 C 81 % 1023,2 hPa 0,0 mm 0,0 km/h (0 Bft) N 0,85 h 0,051 mm 253 W/m 18,4 C 21,9 C 0,0 km/h (0 Bft)
05/10/2023 10:00 24,6 C 70 % 1023,5 hPa 0,0 mm 0,3 km/h (0 Bft) E 0,97 h 0,152 mm 434 W/m 18,7 C 24,6 C 1,3 km/h (1 Bft)
05/10/2023 11:00 26,6 C 63 % 1023,4 hPa 0,0 mm 3,1 km/h (1 Bft) S 1,00 h 0,279 mm 541 W/m 19,1 C 26,6 C 7,3 km/h (2 Bft)
05/10/2023 12:00 27,4 C 59 % 1023,3 hPa 0,0 mm 5,5 km/h (1 Bft) S-SE 1,00 h 0,356 mm 642 W/m 18,6 C 27,4 C 10,3 km/h (2 Bft)
05/10/2023 13:00 27,4 C 56 % 1022,6 hPa 0,0 mm 6,7 km/h (2 Bft) S 1,00 h 0,457 mm 637 W/m 17,7 C 27,4 C 13,1 km/h (3 Bft)
05/10/2023 14:00 27,6 C 54 % 1021,8 hPa 0,0 mm 8,7 km/h (2 Bft) S 1,00 h 0,457 mm 631 W/m 17,4 C 27,6 C 16,0 km/h (3 Bft)
05/10/2023 15:00 27,3 C 53 % 1021,6 hPa 0,0 mm 8,9 km/h (2 Bft) S 1,00 h 0,483 mm 520 W/m 16,9 C 27,3 C 15,0 km/h (3 Bft)
05/10/2023 16:00 26,8 C 51 % 1021,3 hPa 0,0 mm 5,2 km/h (1 Bft) S 0,95 h 0,406 mm 363 W/m 15,8 C 26,8 C 9,9 km/h (2 Bft)
05/10/2023 17:00 25,5 C 47 % 1021,2 hPa 0,0 mm 1,3 km/h (1 Bft) SO 0,52 h 0,279 mm 164 W/m 13,4 C 25,5 C 3,1 km/h (1 Bft)
05/10/2023 18:00 24,6 C 50 % 1021,1 hPa 0,0 mm 0,0 km/h (0 Bft) N 0,55 h 0,127 mm 55 W/m 13,4 C 24,6 C 0,0 km/h (0 Bft)
05/10/2023 19:00 22,2 C 56 % 1021,4 hPa 0,0 mm 0,0 km/h (0 Bft) N 0,00 h 0,051 mm 6 W/m 13,0 C 22,2 C 0,0 km/h (0 Bft)
05/10/2023 20:00 20,0 C 65 % 1021,9 hPa 0,0 mm 0,0 km/h (0 Bft) N 0,00 h 0,000 mm 0 W/m 13,1 C 20,0 C 0,0 km/h (0 Bft)
05/10/2023 21:00 18,6 C 70 % 1022,1 hPa 0,0 mm 0,0 km/h (0 Bft) N 0,00 h 0,025 mm 0 W/m 12,9 C 18,6 C 0,0 km/h (0 Bft)
05/10/2023 22:00 17,8 C 75 % 1022,1 hPa 0,0 mm 0,0 km/h (0 Bft) N 0,00 h 0,025 mm 0 W/m 13,4 C 17,8 C 0,0 km/h (0 Bft)
05/10/2023 23:00 17,6 C 79 % 1022,3 hPa 0,0 mm 0,0 km/h (0 Bft) N 0,00 h 0,025 mm 0 W/m 13,8 C 17,6 C 0,0 km/h (0 Bft)
06/10/2023 00:00 17,5 C 79 % 1022,1 hPa 0,0 mm 0,0 km/h (0 Bft) N 0,00 h 0,025 mm 0 W/m 13,9 C 17,5 C 0,0 km/h (0 Bft)
06/10/2023 01:00 17,1 C 79 % 1022,1 hPa 0,0 mm 0,0 km/h (0 Bft) N 0,00 h 0,025 mm 0 W/m 13,4 C 17,1 C 0,0 km/h (0 Bft)
06/10/2023 02:00 16,7 C 80 % 1022,1 hPa 0,0 mm 0,0 km/h (0 Bft) N 0,00 h 0,025 mm 0 W/m 13,3 C 16,7 C 0,0 km/h (0 Bft)
06/10/2023 03:00 16,6 C 79 % 1021,9 hPa 0,0 mm 0,0 km/h (0 Bft) N 0,00 h 0,025 mm 0 W/m 12,8 C 16,6 C 0,0 km/h (0 Bft)
06/10/2023 04:00 16,3 C 79 % 1022,0 hPa 0,0 mm 0,0 km/h (0 Bft) N 0,00 h 0,025 mm 0 W/m 12,6 C 16,3 C 0,0 km/h (0 Bft)
06/10/2023 05:00 16,1 C 82 % 1022,2 hPa 0,0 mm 0,0 km/h (0 Bft) N 0,00 h 0,025 mm 0 W/m 13,0 C 16,1 C 0,0 km/h (0 Bft)
06/10/2023 06:00 15,5 C 83 % 1022,4 hPa 0,0 mm 0,0 km/h (0 Bft) N 0,00 h 0,025 mm 0 W/m 12,6 C 15,5 C 0,0 km/h (0 Bft)
06/10/2023 07:00 15,4 C 84 % 1022,7 hPa 0,0 mm 0,0 km/h (0 Bft) N 0,00 h 0,025 mm 11 W/m 12,8 C 15,4 C 0,0 km/h (0 Bft)
06/10/2023 08:00 15,9 C 85 % 1023,3 hPa 0,0 mm 0,0 km/h (0 Bft) N 0,43 h 0,000 mm 96 W/m 13,3 C 15,9 C 0,0 km/h (0 Bft)
06/10/2023 09:00 19,2 C 76 % 1023,9 hPa 0,0 mm 0,0 km/h (0 Bft) N 1,00 h 0,051 mm 297 W/m 14,9 C 19,2 C 0,0 km/h (0 Bft)
06/10/2023 10:00 22,6 C 66 % 1024,3 hPa 0,0 mm 0,2 km/h (0 Bft) N-NE 1,00 h 0,178 mm 440 W/m 15,9 C 22,6 C 1,2 km/h (1 Bft)
06/10/2023 11:00 24,9 C 68 % 1024,5 hPa 0,0 mm 1,3 km/h (1 Bft) E 1,00 h 0,279 mm 581 W/m 18,6 C 24,9 C 4,5 km/h (1 Bft)
06/10/2023 12:00 25,2 C 67 % 1024,4 hPa 0,0 mm 1,9 km/h (1 Bft) E 1,00 h 0,381 mm 662 W/m 18,6 C 25,2 C 5,4 km/h (1 Bft)
06/10/2023 13:00 25,5 C 64 % 1024,2 hPa 0,0 mm 1,5 km/h (1 Bft) E-SE 1,00 h 0,432 mm 685 W/m 18,3 C 25,5 C 5,0 km/h (1 Bft)
06/10/2023 14:00 25,6 C 62 % 1023,7 hPa 0,0 mm 1,2 km/h (1 Bft) E-SE 1,00 h 0,432 mm 648 W/m 17,8 C 25,6 C 4,3 km/h (1 Bft)
06/10/2023 15:00 25,5 C 49 % 1023,6 hPa 0,0 mm 1,0 km/h (0 Bft) E-SE 1,00 h 0,406 mm 555 W/m 13,9 C 25,5 C 3,9 km/h (1 Bft)
06/10/2023 16:00 25,4 C 43 % 1023,3 hPa 0,0 mm 0,2 km/h (0 Bft) E-SE 1,00 h 0,356 mm 410 W/m 12,0 C 25,4 C 1,0 km/h (0 Bft)
06/10/2023 17:00 25,0 C 50 % 1023,2 hPa 0,0 mm 0,0 km/h (0 Bft) N 1,00 h 0,279 mm 238 W/m 13,7 C 25,0 C 0,0 km/h (0 Bft)
06/10/2023 18:00 23,1 C 63 % 1023,2 hPa 0,0 mm 0,0 km/h (0 Bft) N 0,70 h 0,152 mm 66 W/m 15,7 C 23,1 C 0,0 km/h (0 Bft)
06/10/2023 19:00 20,7 C 71 % 1023,4 hPa 0,0 mm 0,0 km/h (0 Bft) N 0,00 h 0,051 mm 6 W/m 15,2 C 20,7 C 0,0 km/h (0 Bft)
06/10/2023 20:00 19,2 C 75 % 1023,5 hPa 0,0 mm 0,0 km/h (0 Bft) N 0,00 h 0,000 mm 0 W/m 14,7 C 19,2 C 0,0 km/h (0 Bft)
06/10/2023 21:00 18,5 C 76 % 1023,7 hPa 0,0 mm 0,0 km/h (0 Bft) N 0,00 h 0,025 mm 0 W/m 14,3 C 18,5 C 0,0 km/h (0 Bft)
06/10/2023 22:00 18,4 C 75 % 1023,4 hPa 0,0 mm 0,0 km/h (0 Bft) N 0,00 h 0,025 mm 0 W/m 14,0 C 18,4 C 0,0 km/h (0 Bft)
06/10/2023 23:00 18,4 C 75 % 1023,6 hPa 0,0 mm 0,0 km/h (0 Bft) N 0,00 h 0,025 mm 0 W/m 13,8 C 18,4 C 0,0 km/h (0 Bft)
07/10/2023 00:00 18,3 C 75 % 1023,5 hPa 0,0 mm 0,0 km/h (0 Bft) N 0,00 h 0,025 mm 0 W/m 13,7 C 18,3 C 0,0 km/h (0 Bft)
07/10/2023 01:00 18,1 C 75 % 1023,3 hPa 0,0 mm 0,0 km/h (0 Bft) N 0,00 h 0,025 mm 0 W/m 13,5 C 18,1 C 0,0 km/h (0 Bft)
07/10/2023 02:00 17,6 C 76 % 1023,2 hPa 0,0 mm 0,0 km/h (0 Bft) N 0,00 h 0,025 mm 0 W/m 13,3 C 17,6 C 0,0 km/h (0 Bft)
07/10/2023 03:00 17,6 C 74 % 1022,8 hPa 0,0 mm 0,0 km/h (0 Bft) N 0,00 h 0,025 mm 0 W/m 13,0 C 17,6 C 0,0 km/h (0 Bft)
07/10/2023 04:00 17,7 C 73 % 1022,6 hPa 0,0 mm 0,0 km/h (0 Bft) N 0,00 h 0,025 mm 0 W/m 12,9 C 17,7 C 0,0 km/h (0 Bft)
07/10/2023 05:00 17,6 C 73 % 1022,5 hPa 0,0 mm 0,0 km/h (0 Bft) N 0,00 h 0,025 mm 0 W/m 12,7 C 17,6 C 0,0 km/h (0 Bft)
07/10/2023 06:00 17,6 C 72 % 1022,4 hPa 0,0 mm 0,0 km/h (0 Bft) N 0,00 h 0,025 mm 0 W/m 12,6 C 17,6 C 0,0 km/h (0 Bft)
07/10/2023 07:00 17,4 C 74 % 1022,6 hPa 0,0 mm 0,0 km/h (0 Bft) N 0,02 h 0,025 mm 12 W/m 12,6 C 17,4 C 0,0 km/h (0 Bft)
07/10/2023 08:00 18,1 C 74 % 1023,1 hPa 0,0 mm 0,0 km/h (0 Bft) N 0,48 h 0,000 mm 94 W/m 13,3 C 18,1 C 0,0 km/h (0 Bft)
07/10/2023 09:00 20,9 C 67 % 1023,7 hPa 0,0 mm 0,0 km/h (0 Bft) N 1,00 h 0,051 mm 271 W/m 14,4 C 20,9 C 0,0 km/h (0 Bft)
07/10/2023 10:00 24,4 C 57 % 1023,8 hPa 0,0 mm 0,2 km/h (0 Bft) E-SE 1,00 h 0,152 mm 452 W/m 15,3 C 24,4 C 1,1 km/h (0 Bft)
07/10/2023 11:00 26,7 C 52 % 1023,7 hPa 0,0 mm 0,9 km/h (0 Bft) E-SE 1,00 h 0,279 mm 584 W/m 16,1 C 26,7 C 3,0 km/h (1 Bft)
07/10/2023 12:00 27,6 C 50 % 1023,4 hPa 0,0 mm 3,6 km/h (1 Bft) S 1,00 h 0,381 mm 660 W/m 16,2 C 27,6 C 8,5 km/h (2 Bft)
07/10/2023 13:00 28,3 C 49 % 1022,9 hPa 0,0 mm 3,8 km/h (1 Bft) S 1,00 h 0,457 mm 684 W/m 16,5 C 28,3 C 8,3 km/h (2 Bft)
07/10/2023 14:00 27,7 C 50 % 1022,5 hPa 0,0 mm 4,9 km/h (1 Bft) S-SE 1,00 h 0,483 mm 646 W/m 16,2 C 27,7 C 9,4 km/h (2 Bft)
07/10/2023 15:00 26,7 C 55 % 1022,3 hPa 0,0 mm 3,1 km/h (1 Bft) S-SE 1,00 h 0,457 mm 550 W/m 16,9 C 26,7 C 7,0 km/h (2 Bft)
07/10/2023 16:00 25,8 C 58 % 1022,2 hPa 0,0 mm 1,9 km/h (1 Bft) S-SE 1,00 h 0,381 mm 408 W/m 16,9 C 25,8 C 5,2 km/h (1 Bft)
07/10/2023 17:00 25,0 C 60 % 1022,3 hPa 0,0 mm 0,2 km/h (0 Bft) SE 1,00 h 0,279 mm 233 W/m 16,8 C 25,0 C 1,3 km/h (1 Bft)
07/10/2023 18:00 23,3 C 68 % 1022,5 hPa 0,0 mm 0,0 km/h (0 Bft) SE 0,67 h 0,152 mm 62 W/m 17,1 C 23,3 C 0,2 km/h (0 Bft)
07/10/2023 19:00 20,9 C 81 % 1022,9 hPa 0,0 mm 0,0 km/h (0 Bft) N 0,00 h 0,051 mm 5 W/m 17,5 C 20,9 C 0,0 km/h (0 Bft)
07/10/2023 20:00 19,6 C 85 % 1023,2 hPa 0,0 mm 0,0 km/h (0 Bft) N 0,00 h 0,000 mm 0 W/m 17,0 C 19,6 C 0,0 km/h (0 Bft)
07/10/2023 21:00 18,8 C 88 % 1023,2 hPa 0,0 mm 0,0 km/h (0 Bft) N 0,00 h 0,025 mm 0 W/m 16,8 C 18,8 C 0,0 km/h (0 Bft)
07/10/2023 22:00 18,2 C 88 % 1023,4 hPa 0,0 mm 0,0 km/h (0 Bft) N 0,00 h 0,000 mm 0 W/m 16,1 C 18,2 C 0,0 km/h (0 Bft)
07/10/2023 23:00 17,9 C 85 % 1023,2 hPa 0,0 mm 0,0 km/h (0 Bft) N 0,00 h 0,000 mm 0 W/m 15,2 C 17,9 C 0,0 km/h (0 Bft)
08/10/2023 00:00 17,7 C 82 % 1023,3 hPa 0,0 mm 0,0 km/h (0 Bft) N 0,00 h 0,025 mm 0 W/m 14,6 C 17,7 C 0,0 km/h (0 Bft)
08/10/2023 01:00 17,7 C 80 % 1023,3 hPa 0,0 mm 0,0 km/h (0 Bft) N 0,00 h 0,025 mm 0 W/m 14,2 C 17,7 C 0,0 km/h (0 Bft)
08/10/2023 02:00 17,6 C 79 % 1023,4 hPa 0,0 mm 0,0 km/h (0 Bft) N 0,00 h 0,025 mm 0 W/m 13,9 C 17,6 C 0,0 km/h (0 Bft)
08/10/2023 03:00 17,6 C 78 % 1022,8 hPa 0,0 mm 0,0 km/h (0 Bft) N 0,00 h 0,025 mm 0 W/m 13,6 C 17,6 C 0,0 km/h (0 Bft)
08/10/2023 04:00 17,4 C 77 % 1022,4 hPa 0,0 mm 0,0 km/h (0 Bft) N 0,00 h 0,025 mm 0 W/m 13,3 C 17,4 C 0,0 km/h (0 Bft)
08/10/2023 05:00 17,4 C 78 % 1022,6 hPa 0,0 mm 0,0 km/h (0 Bft) N 0,00 h 0,025 mm 0 W/m 13,4 C 17,4 C 0,0 km/h (0 Bft)
08/10/2023 06:00 17,4 C 78 % 1022,8 hPa 0,0 mm 0,0 km/h (0 Bft) N 0,00 h 0,025 mm 0 W/m 13,5 C 17,4 C 0,0 km/h (0 Bft)
08/10/2023 07:00 17,4 C 76 % 1023,0 hPa 0,0 mm 0,0 km/h (0 Bft) N 0,03 h 0,025 mm 12 W/m 13,2 C 17,4 C 0,0 km/h (0 Bft)
08/10/2023 08:00 18,0 C 74 % 1023,5 hPa 0,0 mm 0,0 km/h (0 Bft) N 0,60 h 0,000 mm 89 W/m 13,3 C 18,0 C 0,0 km/h (0 Bft)
08/10/2023 09:00 21,3 C 68 % 1023,8 hPa 0,0 mm 0,0 km/h (0 Bft) N 0,98 h 0,051 mm 281 W/m 15,0 C 21,3 C 0,0 km/h (0 Bft)
08/10/2023 10:00 24,3 C 61 % 1024,0 hPa 0,0 mm 0,5 km/h (0 Bft) SE 1,00 h 0,178 mm 448 W/m 16,3 C 24,3 C 1,3 km/h (1 Bft)
08/10/2023 11:00 26,4 C 55 % 1023,8 hPa 0,0 mm 0,2 km/h (0 Bft) SE 1,00 h 0,279 mm 576 W/m 16,7 C 26,4 C 1,1 km/h (0 Bft)
08/10/2023 12:00 28,0 C 57 % 1023,5 hPa 0,0 mm 1,4 km/h (1 Bft) SE 1,00 h 0,381 mm 648 W/m 18,5 C 28,0 C 3,8 km/h (1 Bft)
08/10/2023 13:00 28,0 C 56 % 1023,1 hPa 0,0 mm 1,8 km/h (1 Bft) E 1,00 h 0,432 mm 666 W/m 18,3 C 28,0 C 4,9 km/h (1 Bft)
08/10/2023 14:00 29,2 C 51 % 1022,5 hPa 0,0 mm 0,5 km/h (0 Bft) E 1,00 h 0,432 mm 634 W/m 18,0 C 29,2 C 2,6 km/h (1 Bft)
08/10/2023 15:00 28,8 C 51 % 1022,3 hPa 0,0 mm 0,2 km/h (0 Bft) N-NE 1,00 h 0,432 mm 539 W/m 17,5 C 28,8 C 1,5 km/h (1 Bft)
08/10/2023 16:00 28,6 C 54 % 1022,0 hPa 0,0 mm 0,1 km/h (0 Bft) E 1,00 h 0,356 mm 393 W/m 18,3 C 28,6 C 0,4 km/h (0 Bft)
08/10/2023 17:00 27,0 C 61 % 1022,1 hPa 0,0 mm 0,0 km/h (0 Bft) N 1,00 h 0,254 mm 214 W/m 18,7 C 27,0 C 0,1 km/h (0 Bft)
08/10/2023 18:00 24,6 C 71 % 1022,6 hPa 0,0 mm 0,0 km/h (0 Bft) N 0,68 h 0,152 mm 52 W/m 19,0 C 24,6 C 0,0 km/h (0 Bft)
08/10/2023 19:00 21,9 C 81 % 1023,1 hPa 0,0 mm 0,0 km/h (0 Bft) N 0,00 h 0,025 mm 5 W/m 18,5 C 21,9 C 0,0 km/h (0 Bft)
08/10/2023 20:00 20,6 C 85 % 1023,2 hPa 0,0 mm 0,0 km/h (0 Bft) N 0,00 h 0,000 mm 0 W/m 18,0 C 20,6 C 0,0 km/h (0 Bft)
08/10/2023 21:00 20,0 C 84 % 1023,2 hPa 0,0 mm 0,0 km/h (0 Bft) N 0,00 h 0,025 mm 0 W/m 17,2 C 20,0 C 0,0 km/h (0 Bft)
08/10/2023 22:00 20,5 C 79 % 1023,1 hPa 0,0 mm 0,0 km/h (0 Bft) N 0,00 h 0,025 mm 0 W/m 16,7 C 20,5 C 0,0 km/h (0 Bft)
08/10/2023 23:00 20,5 C 74 % 1023,2 hPa 0,0 mm 0,0 km/h (0 Bft) N 0,00 h 0,025 mm 0 W/m 15,7 C 20,5 C 0,0 km/h (0 Bft)
Min-Date _ 06/10/23 02/10/23 04/10/23 - 02/10/23 - - - - 06/10/23 06/10/23 02/10/23
_ Min-Heure 06:32 13:33 05:45 - 00:00 - - - - 15:51 06:32 00:00
Minimum _ 15,4 C 40 % 1019,5 hPa - 0,0 km/h (0 Bft) - - - - 10,7 C 15,4 C 0,0 km/h (0 Bft)
Max-Date _ 08/10/23 05/10/23 02/10/23 02/10/23 05/10/23 - 02/10/23 02/10/23 04/10/23 04/10/23 08/10/23 05/10/23
_ Max-Heure 14:33 01:09 10:30 00:00 14:19 - 07:40 13:00 12:44 14:52 14:33 14:53
Maximum _ 29,6 C 96 % 1024,6 hPa 0,0 mm 14,5 km/h
S (3 Bft)
- 0,02 h 0,483 mm 846 W/m 21,3 C 29,6 C 24,1 km/h
S (4 Bft)
Moyenne _ 21,7 C 72 % 1022,5 hPa #0,0 mm 0,6 km/h (0 Bft) E-SE #67:25 h #22,125 mm 344 W/m 16,1 C 21,7 C 1,5 km/h (1 Bft)
Roquefort les pins